createdAt,value
2022-08-14T00:01:10.352Z,98241.75
2022-08-14T00:03:40.778Z,98247.34
2022-08-14T00:06:25.940Z,98247.81
2022-08-14T00:08:58.984Z,98251.63
2022-08-14T00:11:28.656Z,98247.13
2022-08-14T00:13:55.799Z,98256.59
2022-08-14T00:16:41.665Z,98244.59
2022-08-14T00:19:19.519Z,98248.88
2022-08-14T00:21:50.899Z,98238.22
2022-08-14T00:24:28.139Z,98242.72
2022-08-14T00:27:02.019Z,98246.69
2022-08-14T00:29:33.195Z,98233.16
2022-08-14T00:32:52.858Z,98232.59
2022-08-14T00:34:56.362Z,98220.06
2022-08-14T00:37:23.407Z,98215.88
2022-08-14T00:39:50.981Z,98216.75
2022-08-14T00:42:52.837Z,98218.72
2022-08-14T00:45:12.311Z,98208.31
2022-08-14T00:47:47.415Z,98199.41
2022-08-14T00:50:19.913Z,98205.03
2022-08-14T00:52:53.018Z,98199.53
2022-08-14T00:55:20.896Z,98198.84
2022-08-14T00:58:08.954Z,98202.50
2022-08-14T01:00:47.611Z,98193.44
2022-08-14T01:03:27.660Z,98193.69
2022-08-14T01:05:59.106Z,98188.25
2022-08-14T01:08:51.253Z,98193.25
2022-08-14T01:11:19.143Z,98185.56
2022-08-14T01:13:56.217Z,98175.94
2022-08-14T01:16:31.297Z,98172.22
2022-08-14T01:19:17.215Z,98165.75
2022-08-14T01:21:53.275Z,98167.19
2022-08-14T01:24:24.754Z,98166.38
2022-08-14T01:27:00.626Z,98162.06
2022-08-14T01:30:03.081Z,98164.22
2022-08-14T01:32:23.244Z,98157.91
2022-08-14T01:35:19.130Z,98162.31
2022-08-14T01:37:56.481Z,98157.81
2022-08-14T01:40:36.414Z,98162.31
2022-08-14T01:43:18.688Z,98155.06
2022-08-14T01:45:57.710Z,98151.66
2022-08-14T01:48:33.961Z,98144.47
2022-08-14T01:51:19.211Z,98148.00
2022-08-14T01:53:54.757Z,98138.47
2022-08-14T01:56:37.174Z,98127.31
2022-08-14T01:59:24.006Z,98130.28
2022-08-14T02:01:58.480Z,98118.63
2022-08-14T02:04:56.026Z,98120.41
2022-08-14T02:07:27.289Z,98114.03
2022-08-14T02:10:01.433Z,98109.41
2022-08-14T02:12:29.410Z,98101.97
2022-08-14T02:15:00.475Z,98095.47
2022-08-14T02:17:30.657Z,98087.38
2022-08-14T02:19:57.773Z,98084.25
2022-08-14T02:22:32.418Z,98078.75
2022-08-14T02:25:00.791Z,98073.28
2022-08-14T02:28:24.819Z,98076.47
2022-08-14T02:30:16.433Z,98070.16
2022-08-14T02:32:43.585Z,98072.13
2022-08-14T02:35:18.569Z,98065.47
2022-08-14T02:37:50.580Z,98068.44
2022-08-14T02:40:32.293Z,98064.75
2022-08-14T02:43:02.501Z,98052.53
2022-08-14T02:45:38.747Z,98050.91
2022-08-14T02:49:02.629Z,98050.91
2022-08-14T02:51:07.115Z,98044.22
2022-08-14T02:53:37.452Z,98044.03
2022-08-14T02:56:04.635Z,98040.31
2022-08-14T02:58:51.883Z,98038.25
2022-08-14T03:01:26.255Z,98040.97
2022-08-14T03:03:58.146Z,98052.28
2022-08-14T03:06:48.785Z,98047.19
2022-08-14T03:09:12.719Z,98045.16
2022-08-14T03:11:39.721Z,98040.06
2022-08-14T03:14:12.546Z,98043.09
2022-08-14T03:16:43.465Z,98044.63
2022-08-14T03:19:09.991Z,98052.19
2022-08-14T03:21:40.715Z,98050.16
2022-08-14T03:24:21.657Z,98050.69
2022-08-14T03:26:57.409Z,98045.16
2022-08-14T03:29:26.466Z,98045.59
2022-08-14T03:31:53.722Z,98042.94
2022-08-14T03:34:24.708Z,98038.63
2022-08-14T03:37:39.107Z,98038.78
2022-08-14T03:39:57.179Z,98044.94
2022-08-14T03:42:25.088Z,98041.03
2022-08-14T03:45:20.234Z,98043.88
2022-08-14T03:47:56.018Z,98042.56
2022-08-14T03:50:31.482Z,98049.41
2022-08-14T03:53:01.548Z,98048.13
2022-08-14T03:55:30.248Z,98042.34
2022-08-14T03:57:58.307Z,98043.31
2022-08-14T04:00:42.855Z,98050.25
2022-08-14T04:03:18.021Z,98045.38
2022-08-14T04:05:48.444Z,98047.19
2022-08-14T04:08:23.134Z,98042.78
2022-08-14T04:11:01.031Z,98039.44
2022-08-14T04:13:31.813Z,98037.69
2022-08-14T04:16:12.761Z,98038.00
2022-08-14T04:18:43.323Z,98042.91
2022-08-14T04:21:12.713Z,98035.53
2022-08-14T04:23:40.707Z,98035.16
2022-08-14T04:26:15.038Z,98031.44
2022-08-14T04:29:08.758Z,98029.47
2022-08-14T04:33:00.980Z,98029.19
2022-08-14T04:34:29.166Z,98025.53
2022-08-14T04:37:21.894Z,98024.78
2022-08-14T04:40:08.695Z,98023.75
2022-08-14T04:42:54.595Z,98024.03
2022-08-14T04:45:24.002Z,98011.13
2022-08-14T04:48:12.755Z,98021.72
2022-08-14T04:50:53.799Z,98023.22
2022-08-14T04:53:26.240Z,98023.22
2022-08-14T04:56:02.410Z,98021.09
2022-08-14T04:58:33.767Z,98015.03
2022-08-14T05:01:05.298Z,98011.91
2022-08-14T05:03:39.800Z,98007.59
2022-08-14T05:06:35.015Z,98016.00
2022-08-14T05:09:00.113Z,98016.06
2022-08-14T05:11:27.727Z,98013.88
2022-08-14T05:14:16.650Z,98008.63
2022-08-14T05:16:44.068Z,98010.34
2022-08-14T05:19:18.891Z,98013.50
2022-08-14T05:22:15.663Z,98015.31
2022-08-14T05:24:48.421Z,98012.28
2022-08-14T05:27:22.982Z,98016.47
2022-08-14T05:29:53.851Z,98012.66
2022-08-14T05:32:23.591Z,98016.00
2022-08-14T05:34:58.051Z,98005.94
2022-08-14T05:37:26.490Z,98011.59
2022-08-14T05:39:53.249Z,97998.84
2022-08-14T05:42:22.427Z,97999.91
2022-08-14T05:44:55.759Z,98005.75
2022-08-14T05:47:24.014Z,98000.91
2022-08-14T05:49:51.495Z,98001.28
2022-08-14T05:52:38.343Z,98001.50
2022-08-14T05:55:09.279Z,97994.41
2022-08-14T05:58:00.520Z,98003.75
2022-08-14T06:00:37.151Z,97997.81
2022-08-14T06:03:09.748Z,98002.06
2022-08-14T06:05:38.870Z,98003.13
2022-08-14T06:08:33.377Z,98005.28
2022-08-14T06:11:06.059Z,98001.53
2022-08-14T06:13:41.119Z,98001.28
2022-08-14T06:16:12.487Z,97995.81
2022-08-14T06:18:39.679Z,98007.38
2022-08-14T06:21:06.558Z,97998.56
2022-08-14T06:23:40.143Z,97997.94
2022-08-14T06:26:06.902Z,97990.97
2022-08-14T06:28:33.451Z,97980.91
2022-08-14T06:31:00.892Z,97979.78
2022-08-14T06:33:30.312Z,97972.97
2022-08-14T06:36:18.865Z,97981.44
2022-08-14T06:38:46.482Z,97975.50
2022-08-14T06:41:20.780Z,97962.84
2022-08-14T06:44:03.354Z,97970.84
2022-08-14T06:46:32.579Z,97962.03
2022-08-14T06:49:03.468Z,97970.84
2022-08-14T06:51:44.482Z,97962.78
2022-08-14T06:54:12.580Z,97958.13
2022-08-14T06:56:40.282Z,97962.06
2022-08-14T06:59:19.686Z,97968.69
2022-08-14T07:02:05.776Z,97966.34
2022-08-14T07:04:58.558Z,97961.75
2022-08-14T07:07:25.187Z,97957.50
2022-08-14T07:09:55.402Z,97953.41
2022-08-14T07:12:54.892Z,97950.00
2022-08-14T07:15:09.534Z,97942.94
2022-08-14T07:17:46.077Z,97943.56
2022-08-14T07:20:13.882Z,97944.97
2022-08-14T07:22:56.510Z,97941.03
2022-08-14T07:25:32.242Z,97939.78
2022-08-14T07:28:00.646Z,97934.84
2022-08-14T07:30:33.882Z,97930.50
2022-08-14T07:33:02.580Z,97933.56
2022-08-14T07:35:30.357Z,97927.31
2022-08-14T07:38:18.971Z,97914.69
2022-08-14T07:40:48.328Z,97915.06
2022-08-14T07:43:21.348Z,97916.03
2022-08-14T07:45:50.700Z,97912.34
2022-08-14T07:48:17.829Z,97916.59
2022-08-14T07:50:47.291Z,97910.75
2022-08-14T07:53:14.546Z,97913.25
2022-08-14T07:55:42.844Z,97899.94
2022-08-14T07:58:34.292Z,97898.19
2022-08-14T08:00:56.987Z,97891.69
2022-08-14T08:03:27.979Z,97897.94
2022-08-14T08:05:54.975Z,97897.44
2022-08-14T08:08:27.319Z,97892.13
2022-08-14T08:11:02.823Z,97884.53
2022-08-14T08:13:34.567Z,97889.75
2022-08-14T08:16:08.123Z,97883.25
2022-08-14T08:18:36.202Z,97886.84
2022-08-14T08:21:02.905Z,97892.53
2022-08-14T08:23:40.779Z,97896.06
2022-08-14T08:26:10.330Z,97894.09
2022-08-14T08:28:36.998Z,97883.19
2022-08-14T08:31:06.793Z,97891.09
2022-08-14T08:33:37.079Z,97890.34
2022-08-14T08:36:12.973Z,97887.09
2022-08-14T08:39:17.445Z,97884.22
2022-08-14T08:41:49.446Z,97890.00
2022-08-14T08:44:32.804Z,97884.31
2022-08-14T08:47:05.978Z,97888.50
2022-08-14T08:49:59.508Z,97893.91
2022-08-14T08:52:31.613Z,97887.28
2022-08-14T08:55:00.718Z,97897.06
2022-08-14T08:57:36.926Z,97886.94
2022-08-14T09:00:25.836Z,97877.22
2022-08-14T09:03:04.574Z,97874.97
2022-08-14T09:05:33.392Z,97873.34
2022-08-14T09:08:33.437Z,97854.34
2022-08-14T09:11:19.443Z,97855.88
2022-08-14T09:13:51.474Z,97856.69
2022-08-14T09:16:25.317Z,97860.66
2022-08-14T09:18:54.030Z,97865.78
2022-08-14T09:21:24.267Z,97857.94
2022-08-14T09:24:29.478Z,97866.25
2022-08-14T09:26:49.408Z,97871.41
2022-08-14T09:29:17.618Z,97871.81
2022-08-14T09:31:55.930Z,97856.06
2022-08-14T09:34:59.284Z,97847.16
2022-08-14T09:37:44.271Z,97843.19
2022-08-14T09:40:44.628Z,97840.06
2022-08-14T09:43:33.595Z,97828.22
2022-08-14T09:46:02.751Z,97820.50
2022-08-14T09:48:30.837Z,97818.97
2022-08-14T09:54:19.555Z,97810.41
2022-08-14T09:56:31.773Z,97818.00
2022-08-14T09:59:15.096Z,97813.97
2022-08-14T10:01:44.032Z,97806.44
2022-08-14T10:04:34.396Z,97807.28
2022-08-14T10:07:06.082Z,97812.13
2022-08-14T10:09:46.032Z,97799.13
2022-08-14T10:12:54.897Z,97790.06
2022-08-14T10:15:30.021Z,97792.47
2022-08-14T10:18:08.018Z,97792.47
2022-08-14T10:20:44.964Z,97790.69
2022-08-14T10:23:18.903Z,97786.84
2022-08-14T10:25:53.271Z,97785.56
2022-08-14T10:28:39.237Z,97791.50
2022-08-14T10:31:25.442Z,97787.97
2022-08-14T10:34:13.113Z,97782.75
2022-08-14T10:36:47.662Z,97775.91
2022-08-14T10:39:26.165Z,97780.19
2022-08-14T10:42:16.411Z,97776.53
2022-08-14T10:44:49.066Z,97775.09
2022-08-14T10:47:40.744Z,97771.13
2022-08-14T10:50:07.613Z,97768.91
2022-08-14T10:52:38.078Z,97765.50
2022-08-14T10:55:19.357Z,97761.06
2022-08-14T10:57:56.889Z,97752.34
2022-08-14T11:00:30.249Z,97758.00
2022-08-14T11:03:26.463Z,97757.03
2022-08-14T11:05:55.846Z,97760.00
2022-08-14T11:08:33.879Z,97743.53
2022-08-14T11:11:05.332Z,97752.97
2022-08-14T11:13:32.676Z,97753.91
2022-08-14T11:16:01.942Z,97739.00
2022-08-14T11:18:35.837Z,97742.16
2022-08-14T11:21:07.015Z,97736.59
2022-08-14T11:23:41.257Z,97736.72
2022-08-14T11:26:12.069Z,97735.91
2022-08-14T11:28:47.032Z,97743.28
2022-08-14T11:31:23.257Z,97747.28
2022-08-14T11:33:57.663Z,97749.69
2022-08-14T11:36:56.997Z,97745.88
2022-08-14T11:39:34.588Z,97748.13
2022-08-14T11:42:57.687Z,97738.72
2022-08-14T11:45:03.249Z,97744.38
2022-08-14T11:47:35.219Z,97732.38
2022-08-14T11:50:14.612Z,97737.44
2022-08-14T11:53:04.367Z,97727.81
2022-08-14T11:55:39.736Z,97722.41
2022-08-14T11:58:23.898Z,97704.84
2022-08-14T12:00:58.783Z,97714.38
2022-08-14T12:03:52.259Z,97709.09
2022-08-14T12:06:29.593Z,97709.69
2022-08-14T12:09:08.726Z,97708.00
2022-08-14T12:11:47.140Z,97696.75
2022-08-14T12:14:31.129Z,97696.63
2022-08-14T12:17:12.598Z,97690.16
2022-08-14T12:20:03.450Z,97691.09
2022-08-14T12:22:52.345Z,97679.09
2022-08-14T12:25:24.573Z,97678.38
2022-08-14T12:27:59.323Z,97666.63
2022-08-14T12:30:43.445Z,97673.00
2022-08-14T12:33:33.437Z,97662.50
2022-08-14T12:36:06.133Z,97658.97
2022-08-14T12:38:41.191Z,97657.97
2022-08-14T12:41:22.033Z,97658.19
2022-08-14T12:44:03.791Z,97647.78
2022-08-14T12:46:43.370Z,97651.13
2022-08-14T12:49:17.091Z,97644.19
2022-08-14T12:51:57.453Z,97646.03
2022-08-14T12:54:28.372Z,97638.00
2022-08-14T12:57:19.902Z,97624.22
2022-08-14T12:59:49.208Z,97615.28
2022-08-14T13:02:25.266Z,97613.63
2022-08-14T13:04:55.717Z,97618.13
2022-08-14T13:07:24.152Z,97607.16
2022-08-14T13:09:56.012Z,97605.41
2022-08-14T13:12:31.371Z,97611.13
2022-08-14T13:15:08.955Z,97600.69
2022-08-14T13:17:51.216Z,97593.69
2022-08-14T13:20:23.143Z,97590.47
2022-08-14T13:22:52.243Z,97594.81
2022-08-14T13:25:25.815Z,97593.69
2022-08-14T13:27:57.557Z,97593.41
2022-08-14T13:30:27.017Z,97590.88
2022-08-14T13:32:58.404Z,97583.59
2022-08-14T13:35:26.123Z,97574.91
2022-08-14T13:37:54.086Z,97575.72
2022-08-14T13:40:26.468Z,97564.06
2022-08-14T13:42:55.496Z,97562.91
2022-08-14T13:45:32.624Z,97563.72
2022-08-14T13:48:00.272Z,97563.59
2022-08-14T13:50:27.064Z,97549.78
2022-08-14T13:52:58.212Z,97544.50
2022-08-14T13:55:30.457Z,97542.34
2022-08-14T13:58:03.233Z,97545.66
2022-08-14T14:00:51.742Z,97539.91
2022-08-14T14:03:25.306Z,97540.22
2022-08-14T14:05:57.850Z,97539.41
2022-08-14T14:08:45.907Z,97534.41
2022-08-14T14:11:15.923Z,97534.00
2022-08-14T14:13:45.134Z,97527.38
2022-08-14T14:16:14.911Z,97536.41
2022-08-14T14:18:48.907Z,97524.41
2022-08-14T14:21:21.838Z,97523.69
2022-08-14T14:23:49.107Z,97522.38
2022-08-14T14:26:23.057Z,97517.50
2022-08-14T14:28:56.761Z,97518.16
2022-08-14T14:31:31.080Z,97516.78
2022-08-14T14:34:07.741Z,97506.13
2022-08-14T14:36:52.545Z,97507.06
2022-08-14T14:39:29.105Z,97510.22
2022-08-14T14:41:59.639Z,97506.34
2022-08-14T14:44:42.369Z,97507.53
2022-08-14T14:47:17.552Z,97509.91
2022-08-14T14:49:54.542Z,97506.47
2022-08-14T14:52:27.619Z,97503.19
2022-08-14T14:54:59.202Z,97511.59
2022-08-14T14:57:35.901Z,97504.66
2022-08-14T15:00:19.370Z,97502.69
2022-08-14T15:02:51.525Z,97491.53
2022-08-14T15:05:20.479Z,97495.03
2022-08-14T15:07:51.078Z,97490.69
2022-08-14T15:10:26.936Z,97496.44
2022-08-14T15:13:00.030Z,97488.97
2022-08-14T15:15:27.326Z,97482.69
2022-08-14T15:17:54.747Z,97477.25
2022-08-14T15:20:30.853Z,97487.63
2022-08-14T15:23:12.162Z,97477.53
2022-08-14T15:25:43.755Z,97480.44
2022-08-14T15:28:20.903Z,97476.13
2022-08-14T15:30:51.163Z,97475.63
2022-08-14T15:34:13.496Z,97472.88
2022-08-14T15:36:45.337Z,97476.53
2022-08-14T15:39:13.463Z,97478.69
2022-08-14T15:41:42.166Z,97484.88
2022-08-14T15:44:24.679Z,97481.69
2022-08-14T15:46:52.324Z,97483.38
2022-08-14T15:49:19.642Z,97478.13
2022-08-14T15:51:46.233Z,97478.63
2022-08-14T15:54:13.014Z,97479.13
2022-08-14T15:56:42.854Z,97469.47
2022-08-14T15:59:13.113Z,97479.72
2022-08-14T16:01:54.190Z,97464.31
2022-08-14T16:04:22.684Z,97465.06
2022-08-14T16:06:54.583Z,97464.59
2022-08-14T16:09:21.837Z,97468.19
2022-08-14T16:11:53.747Z,97459.94
2022-08-14T16:14:21.810Z,97459.75
2022-08-14T16:17:00.702Z,97455.16
2022-08-14T16:19:43.967Z,97458.13
2022-08-14T16:22:58.838Z,97449.47
2022-08-14T16:25:01.982Z,97452.56
2022-08-14T16:27:33.748Z,97447.16
2022-08-14T16:30:10.797Z,97447.97
2022-08-14T16:32:55.662Z,97439.56
2022-08-14T16:35:42.942Z,97452.22
2022-08-14T16:38:45.737Z,97444.53
2022-08-14T16:41:25.848Z,97451.22
2022-08-14T16:44:21.411Z,97444.84
2022-08-14T16:46:57.110Z,97440.69
2022-08-14T16:49:26.009Z,97439.53
2022-08-14T16:52:26.181Z,97442.19
2022-08-14T16:55:08.995Z,97433.66
2022-08-14T16:57:51.827Z,97432.25
2022-08-14T17:00:43.667Z,97430.25
2022-08-14T17:03:12.801Z,97437.28
2022-08-14T17:05:46.681Z,97440.22
2022-08-14T17:08:42.836Z,97430.78
2022-08-14T17:11:10.581Z,97432.94
2022-08-14T17:13:58.267Z,97428.03
2022-08-14T17:16:38.117Z,97427.63
2022-08-14T17:19:13.779Z,97428.34
2022-08-14T17:21:46.893Z,97423.13
2022-08-14T17:24:57.088Z,97422.22
2022-08-14T17:27:04.216Z,97421.34
2022-08-14T17:29:56.382Z,97419.44
2022-08-14T17:35:57.718Z,97422.13
2022-08-14T17:38:33.597Z,97415.25
2022-08-14T17:41:27.094Z,97412.63
2022-08-14T17:44:45.628Z,97418.34
2022-08-14T17:47:18.288Z,97424.56
2022-08-14T17:49:52.061Z,97422.03
2022-08-14T17:52:36.374Z,97425.44
2022-08-14T17:56:02.534Z,97420.66
2022-08-14T17:58:01.016Z,97420.97
2022-08-14T18:00:28.587Z,97423.56
2022-08-14T18:02:58.691Z,97424.19
2022-08-14T18:06:07.447Z,97427.28
2022-08-14T18:08:33.302Z,97422.38
2022-08-14T18:11:02.566Z,97421.31
2022-08-14T18:13:51.622Z,97420.06
2022-08-14T18:16:20.364Z,97422.78
2022-08-14T18:18:49.887Z,97423.03
2022-08-14T18:21:40.467Z,97429.03
2022-08-14T18:24:20.318Z,97423.00
2022-08-14T18:27:01.920Z,97418.66
2022-08-14T18:29:32.091Z,97425.50
2022-08-14T18:32:00.064Z,97423.69
2022-08-14T18:34:37.831Z,97425.56
2022-08-14T18:37:20.992Z,97419.97
2022-08-14T18:40:02.355Z,97424.84
2022-08-14T18:42:33.087Z,97421.78
2022-08-14T18:45:01.576Z,97421.38
2022-08-14T18:47:32.680Z,97424.03
2022-08-14T18:50:31.131Z,97424.38
2022-08-14T18:53:10.745Z,97425.56
2022-08-14T18:55:37.636Z,97424.81
2022-08-14T18:58:43.954Z,97426.19
2022-08-14T19:01:24.180Z,97428.44
2022-08-14T19:03:51.996Z,97432.72
2022-08-14T19:06:19.468Z,97433.06
2022-08-14T19:08:50.147Z,97431.06
2022-08-14T19:11:32.498Z,97440.53
2022-08-14T19:14:04.727Z,97430.03
2022-08-14T19:16:36.124Z,97438.78
2022-08-14T19:19:08.068Z,97441.34
2022-08-14T19:21:55.783Z,97440.56
2022-08-14T19:24:44.267Z,97434.88
2022-08-14T19:27:26.209Z,97438.81
2022-08-14T19:30:19.714Z,97444.88
2022-08-14T19:32:51.082Z,97448.41
2022-08-14T19:35:24.746Z,97438.50
2022-08-14T19:38:32.963Z,97438.97
2022-08-14T19:41:01.568Z,97438.81
2022-08-14T19:43:55.838Z,97441.31
2022-08-14T19:46:37.949Z,97442.38
2022-08-14T19:49:08.636Z,97453.34
2022-08-14T19:51:48.819Z,97461.59
2022-08-14T19:54:16.424Z,97456.84
2022-08-14T19:56:45.700Z,97455.81
2022-08-14T19:59:21.468Z,97459.13
2022-08-14T20:01:52.444Z,97451.91
2022-08-14T20:04:46.903Z,97450.66
2022-08-14T20:08:09.132Z,97452.94
2022-08-14T20:11:04.788Z,97456.41
2022-08-14T20:13:32.256Z,97461.34
2022-08-14T20:16:12.367Z,97458.88
2022-08-14T20:18:51.644Z,97458.84
2022-08-14T20:21:21.277Z,97455.94
2022-08-14T20:23:49.631Z,97450.63
2022-08-14T20:26:31.581Z,97458.44
2022-08-14T20:29:04.434Z,97460.06
2022-08-14T20:31:37.366Z,97457.97
2022-08-14T20:34:18.824Z,97463.53
2022-08-14T20:37:04.462Z,97461.97
2022-08-14T20:39:34.648Z,97462.06
2022-08-14T20:42:33.609Z,97463.09
2022-08-14T20:45:24.307Z,97464.56
2022-08-14T20:48:02.031Z,97458.41
2022-08-14T20:50:36.578Z,97453.44
2022-08-14T20:53:35.577Z,97453.69
2022-08-14T20:56:28.369Z,97450.59
2022-08-14T20:58:57.161Z,97448.91
2022-08-14T21:01:23.909Z,97447.66
2022-08-14T21:03:58.316Z,97442.31
2022-08-14T21:07:22.864Z,97438.78
2022-08-14T21:10:05.712Z,97439.13
2022-08-14T21:12:34.644Z,97439.53
2022-08-14T21:15:01.035Z,97443.47
2022-08-14T21:17:30.001Z,97440.19
2022-08-14T21:19:56.783Z,97446.78
2022-08-14T21:22:23.603Z,97447.94
2022-08-14T21:25:01.477Z,97445.81
2022-08-14T21:27:37.106Z,97440.81
2022-08-14T21:30:08.731Z,97443.44
2022-08-14T21:32:50.134Z,97453.84
2022-08-14T21:35:24.721Z,97448.69
2022-08-14T21:37:53.511Z,97435.31
2022-08-14T21:40:42.264Z,97447.84
2022-08-14T21:43:17.977Z,97443.69
2022-08-14T21:45:53.967Z,97447.25
2022-08-14T21:48:29.798Z,97446.38
2022-08-14T21:51:55.252Z,97448.91
2022-08-14T21:53:58.596Z,97438.91
2022-08-14T21:56:39.080Z,97436.63
2022-08-14T21:59:17.583Z,97440.25
2022-08-14T22:02:01.035Z,97440.13
2022-08-14T22:04:40.764Z,97433.72
2022-08-14T22:07:16.813Z,97439.28
2022-08-14T22:09:45.460Z,97435.56
2022-08-14T22:12:57.384Z,97440.47
2022-08-14T22:15:11.544Z,97436.44
2022-08-14T22:17:44.364Z,97429.81
2022-08-14T22:20:16.302Z,97433.69
2022-08-14T22:22:45.678Z,97428.13
2022-08-14T22:25:17.404Z,97425.66
2022-08-14T22:27:56.097Z,97422.19
2022-08-14T22:30:25.383Z,97412.91
2022-08-14T22:32:57.894Z,97421.03
2022-08-14T22:35:26.706Z,97416.44
2022-08-14T22:38:34.648Z,97410.19
2022-08-14T22:41:07.600Z,97417.69
2022-08-14T22:43:31.859Z,97408.09
2022-08-14T22:46:02.300Z,97407.47
2022-08-14T22:48:29.502Z,97405.19
2022-08-14T22:50:56.290Z,97402.72
2022-08-14T22:53:29.419Z,97402.06
2022-08-14T22:55:56.722Z,97415.31
2022-08-14T22:58:30.627Z,97410.63
2022-08-14T23:01:01.026Z,97413.91
2022-08-14T23:03:31.204Z,97404.81
2022-08-14T23:06:01.999Z,97404.25
2022-08-14T23:08:57.791Z,97395.66
2022-08-14T23:11:15.934Z,97406.47
2022-08-14T23:13:46.245Z,97400.63
2022-08-14T23:16:20.375Z,97396.13
2022-08-14T23:18:53.571Z,97407.53
2022-08-14T23:21:22.046Z,97407.16
2022-08-14T23:23:54.760Z,97401.91
2022-08-14T23:26:48.484Z,97402.16
2022-08-14T23:29:13.382Z,97397.41
2022-08-14T23:31:43.568Z,97398.34
2022-08-14T23:34:20.792Z,97395.97
2022-08-14T23:36:56.192Z,97392.03
2022-08-14T23:39:30.968Z,97384.84
2022-08-14T23:42:08.684Z,97384.97
2022-08-14T23:44:38.139Z,97380.31
2022-08-14T23:47:12.241Z,97377.66
2022-08-14T23:50:03.259Z,97375.75
2022-08-14T23:52:56.012Z,97378.69
2022-08-14T23:55:30.991Z,97375.47
2022-08-14T23:57:59.344Z,97371.56
